Time;durP1;ratioP1;P1;durP2;ratioP2;P2;SDS_P1;SDS_P2;PMS_P1;PMS_P2;Temp;Humidity;BMP_temperature;BMP_pressure;BME280_temperature;BME280_humidity;BME280_pressure;Samples;Min_cycle;Max_cycle;Signal;HPM_P1;HPM_P2
2022/11/02 00:01:40;;;;;;;7.50;2.70;;;10.40;99.90;;;;;;5002796;28;20466;-66
2022/11/02 00:04:06;;;;;;;3.83;2.83;;;10.40;99.90;;;;;;5001112;28;20249;-66
2022/11/02 00:06:31;;;;;;;5.50;2.33;;;10.30;99.90;;;;;;5001081;28;20593;-66
2022/11/02 00:08:57;;;;;;;6.50;2.90;;;10.30;99.90;;;;;;4998768;28;20474;-66
2022/11/02 00:11:22;;;;;;;3.20;2.17;;;10.30;99.90;;;;;;4993208;28;20207;-65
2022/11/02 00:13:48;;;;;;;8.03;3.20;;;10.30;99.90;;;;;;4999197;28;20203;-66
2022/11/02 00:16:17;;;;;;;7.10;2.67;;;10.40;99.90;;;;;;4998324;28;20190;-66
2022/11/02 00:18:45;;;;;;;2.63;2.43;;;10.40;99.90;;;;;;4991651;28;20217;-66
2022/11/02 00:21:12;;;;;;;8.93;3.37;;;10.30;99.90;;;;;;4999149;28;20437;-67
2022/11/02 00:23:39;;;;;;;5.07;3.10;;;10.30;99.90;;;;;;4998204;28;20524;-66
2022/11/02 00:26:04;;;;;;;8.03;2.83;;;10.30;99.90;;;;;;5004006;28;20435;-66
2022/11/02 00:28:30;;;;;;;6.40;2.60;;;10.20;99.90;;;;;;4999371;28;20445;-66
2022/11/02 00:30:55;;;;;;;6.50;2.50;;;10.20;99.90;;;;;;5005461;28;20193;-66
2022/11/02 00:33:21;;;;;;;10.20;3.37;;;10.20;99.90;;;;;;5002710;28;20285;-66
2022/11/02 00:35:46;;;;;;;4.10;2.67;;;10.10;99.90;;;;;;4999384;28;20179;-66
2022/11/02 00:38:12;;;;;;;6.07;2.70;;;10.10;99.90;;;;;;4995960;28;20183;-66
2022/11/02 00:40:38;;;;;;;4.30;2.43;;;10.10;99.90;;;;;;5003503;28;20638;-65
2022/11/02 00:43:03;;;;;;;6.47;2.80;;;10.20;99.90;;;;;;4999980;28;20212;-66
2022/11/02 00:45:29;;;;;;;5.53;3.00;;;10.20;99.90;;;;;;4996472;28;20560;-66
2022/11/02 00:47:54;;;;;;;3.97;2.60;;;10.20;99.90;;;;;;4995802;28;20183;-66
2022/11/02 00:50:20;;;;;;;6.00;2.70;;;10.10;99.90;;;;;;5005100;28;20183;-66
2022/11/02 00:52:45;;;;;;;13.67;2.50;;;10.10;99.90;;;;;;5001454;28;20254;-66
2022/11/02 00:55:11;;;;;;;3.00;2.50;;;10.10;99.90;;;;;;5007181;28;20183;-66
2022/11/02 00:57:38;;;;;;;3.17;2.47;;;10.20;99.90;;;;;;4998522;28;20194;-66
2022/11/02 01:00:05;;;;;;;6.63;2.50;;;10.20;99.90;;;;;;4998425;28;20820;-66
2022/11/02 01:02:32;;;;;;;5.87;2.53;;;10.20;99.90;;;;;;5005362;28;20453;-66
2022/11/02 01:04:58;;;;;;;3.70;2.27;;;10.10;99.90;;;;;;5001397;28;20438;-66
2022/11/02 01:07:23;;;;;;;4.27;2.40;;;10.10;99.90;;;;;;5004685;28;20439;-66
2022/11/02 01:09:49;;;;;;;5.80;3.00;;;10.00;99.90;;;;;;5004720;28;20627;-66
2022/11/02 01:12:14;;;;;;;4.60;2.40;;;10.00;99.90;;;;;;4997359;28;20214;-66
2022/11/02 01:14:40;;;;;;;5.67;2.77;;;9.90;99.90;;;;;;4994066;28;20192;-66
2022/11/02 01:17:05;;;;;;;7.23;2.43;;;9.80;99.90;;;;;;5003165;28;20210;-66
2022/11/02 01:19:31;;;;;;;3.20;2.50;;;9.80;99.90;;;;;;4993662;28;20245;-66
2022/11/02 01:21:57;;;;;;;6.80;2.60;;;9.90;99.90;;;;;;5005993;28;20199;-66
2022/11/02 01:24:22;;;;;;;6.97;2.20;;;9.90;99.90;;;;;;5003208;28;20182;-66
2022/11/02 01:26:51;;;;;;;4.77;3.10;;;9.90;99.90;;;;;;5002954;28;20186;-65
2022/11/02 01:29:17;;;;;;;3.33;2.53;;;9.90;99.90;;;;;;5004844;28;20183;-66
2022/11/02 01:31:43;;;;;;;3.30;2.37;;;9.90;99.90;;;;;;4997525;28;20463;-66
2022/11/02 01:34:10;;;;;;;5.50;3.13;;;9.90;99.90;;;;;;4999753;28;20989;-66
2022/11/02 01:36:36;;;;;;;3.83;2.77;;;9.90;99.90;;;;;;4998539;28;20210;-66
2022/11/02 01:39:01;;;;;;;4.37;2.57;;;9.90;99.90;;;;;;4995426;28;20505;-66
2022/11/02 01:41:27;;;;;;;3.60;2.40;;;10.10;99.90;;;;;;5000115;28;20256;-66
2022/11/02 01:43:57;;;;;;;5.57;2.73;;;10.00;99.90;;;;;;5000269;28;20289;-65
2022/11/02 01:46:45;;;;;;;4.63;2.93;;;10.00;99.90;;;;;;4996398;28;20171;-65
2022/11/02 01:49:17;;;;;;;3.13;2.80;;;10.10;99.90;;;;;;5005989;28;20438;-66
2022/11/02 01:51:55;;;;;;;3.03;2.73;;;10.10;99.90;;;;;;4998505;28;20489;-66
2022/11/02 01:54:31;;;;;;;9.23;3.27;;;10.00;99.90;;;;;;5000695;28;20448;-66
2022/11/02 01:57:03;;;;;;;3.63;2.70;;;10.00;99.90;;;;;;5001193;28;20434;-66
2022/11/02 01:59:35;;;;;;;3.93;3.20;;;10.10;99.90;;;;;;5001821;28;20476;-66
2022/11/02 02:02:07;;;;;;;4.93;3.70;;;10.10;99.90;;;;;;4991733;28;20458;-66
2022/11/02 02:04:34;;;;;;;4.57;2.60;;;10.10;99.90;;;;;;4999080;28;20441;-66
2022/11/02 02:07:00;;;;;;;4.40;2.90;;;10.00;99.90;;;;;;4997943;28;20530;-66
2022/11/02 02:09:28;;;;;;;3.90;3.23;;;10.00;99.90;;;;;;5002091;28;20448;-65
2022/11/02 02:11:54;;;;;;;5.17;2.87;;;10.00;99.90;;;;;;5001272;28;20453;-65
2022/11/02 02:14:20;;;;;;;4.53;2.93;;;10.10;99.90;;;;;;5003930;28;20849;-65
2022/11/02 02:17:17;;;;;;;3.43;2.73;;;10.00;99.90;;;;;;4995632;28;20207;-66
2022/11/02 02:20:20;;;;;;;5.67;3.00;;;10.10;99.90;;;;;;4987299;28;20469;-66
2022/11/02 02:23:17;;;;;;;6.93;3.67;;;10.10;99.90;;;;;;4991517;28;20615;-66
2022/11/02 02:26:16;;;;;;;5.07;3.43;;;10.00;99.90;;;;;;4998080;28;20466;-66
2022/11/02 02:29:20;;;;;;;4.90;3.50;;;10.00;99.90;;;;;;4993596;28;20804;-65
2022/11/02 02:32:23;;;;;;;3.40;2.33;;;10.00;99.90;;;;;;4987953;28;20549;-66
2022/11/02 02:34:57;;;;;;;4.73;2.53;;;9.90;99.90;;;;;;4990502;28;20525;-66
2022/11/02 02:37:39;;;;;;;2.90;2.60;;;9.90;99.90;;;;;;5000212;28;20580;-66
2022/11/02 02:40:28;;;;;;;6.37;3.40;;;9.90;99.90;;;;;;4992751;28;20497;-66
2022/11/02 02:43:11;;;;;;;5.47;3.37;;;10.00;99.90;;;;;;4998820;28;20604;-65
2022/11/02 02:45:43;;;;;;;8.90;3.50;;;9.90;99.90;;;;;;4996608;28;20802;-66
2022/11/02 02:48:18;;;;;;;4.50;2.77;;;9.90;99.90;;;;;;4994387;28;20461;-65
2022/11/02 02:50:56;;;;;;;5.63;3.17;;;9.90;99.90;;;;;;4997875;28;20468;-66
2022/11/02 02:53:28;;;;;;;9.23;2.83;;;9.90;99.90;;;;;;4993060;28;20453;-66
2022/11/02 02:55:56;;;;;;;4.83;2.90;;;9.90;99.90;;;;;;5000011;28;20584;-66
2022/11/02 02:58:29;;;;;;;13.97;3.30;;;9.90;99.90;;;;;;4987569;28;20446;-66
2022/11/02 03:00:55;;;;;;;6.40;3.80;;;9.90;99.90;;;;;;4999490;28;20495;-66
2022/11/02 03:03:24;;;;;;;4.77;3.00;;;9.90;99.90;;;;;;4999888;28;20454;-66
2022/11/02 03:06:13;;;;;;;4.93;3.03;;;9.90;99.90;;;;;;4990675;28;20432;-66
2022/11/02 03:08:41;;;;;;;4.83;2.77;;;9.90;99.90;;;;;;4991548;28;20430;-66
2022/11/02 03:11:13;;;;;;;6.37;2.93;;;9.90;99.90;;;;;;4993845;28;20438;-66
2022/11/02 03:14:09;;;;;;;3.90;3.20;;;9.90;99.90;;;;;;4997490;28;20978;-66
2022/11/02 03:16:41;;;;;;;7.77;2.97;;;9.90;99.90;;;;;;4991049;28;20432;-66
2022/11/02 03:19:48;;;;;;;2.97;2.60;;;9.90;99.90;;;;;;5000256;28;20472;-66
2022/11/02 03:22:21;;;;;;;6.83;2.77;;;9.80;99.90;;;;;;4998444;28;20450;-66
2022/11/02 03:25:33;;;;;;;3.70;2.90;;;9.80;99.90;;;;;;4994877;28;20426;-66
2022/11/02 03:28:19;;;;;;;7.03;3.77;;;9.80;99.90;;;;;;4976938;28;20821;-66
2022/11/02 03:30:52;;;;;;;5.43;3.13;;;9.90;99.90;;;;;;4990128;28;20548;-66
2022/11/02 03:33:30;;;;;;;3.20;2.63;;;9.80;99.90;;;;;;4993264;28;21055;-66
2022/11/02 03:36:04;;;;;;;6.50;2.70;;;9.80;99.90;;;;;;4993797;28;20537;-66
2022/11/02 03:38:34;;;;;;;3.37;2.90;;;9.90;99.90;;;;;;4998054;28;20461;-66
2022/11/02 03:41:00;;;;;;;5.40;2.90;;;9.90;99.90;;;;;;4991823;28;20493;-66
2022/11/02 03:43:27;;;;;;;9.30;2.93;;;9.90;99.90;;;;;;4999740;28;20467;-66
2022/11/02 03:46:00;;;;;;;3.43;3.13;;;9.90;99.90;;;;;;4998988;28;20426;-66
2022/11/02 03:48:31;;;;;;;3.20;2.83;;;9.90;99.90;;;;;;4996627;28;20512;-65
2022/11/02 03:50:59;;;;;;;3.70;2.80;;;9.90;99.90;;;;;;4999429;28;20434;-66
2022/11/02 03:53:40;;;;;;;3.27;2.97;;;9.90;99.90;;;;;;4989893;28;20532;-66
2022/11/02 03:56:11;;;;;;;4.03;3.37;;;9.90;99.90;;;;;;5000124;28;20435;-66
2022/11/02 03:58:36;;;;;;;7.47;3.33;;;9.90;99.90;;;;;;5000318;28;21038;-65
2022/11/02 04:01:07;;;;;;;4.30;2.90;;;10.00;99.90;;;;;;5002778;28;20438;-66
2022/11/02 04:03:35;;;;;;;3.80;3.47;;;9.90;99.90;;;;;;4999531;28;20181;-66
2022/11/02 04:06:00;;;;;;;3.73;2.83;;;10.00;99.90;;;;;;4995621;28;20439;-66
2022/11/02 04:08:38;;;;;;;5.40;3.10;;;10.00;99.90;;;;;;5006246;28;20488;-66
2022/11/02 04:16:33;;;;;;;5.77;3.30;;;9.90;99.90;;;;;;4993982;28;20434;-66
2022/11/02 04:25:14;;;;;;;3.30;2.70;;;9.80;99.90;;;;;;5002444;28;20463;-66
2022/11/02 04:25:14;;;;;;;4.17;2.63;;;9.80;99.90;;;;;;5000789;28;20260;-65
2022/11/02 04:27:28;;;;;;;6.20;2.77;;;9.80;99.90;;;;;;5001146;28;20488;-66
2022/11/02 04:29:54;;;;;;;7.67;2.93;;;9.80;99.90;;;;;;4991978;28;20869;-66
2022/11/02 04:35:04;;;;;;;7.87;3.97;;;9.70;99.90;;;;;;5004277;28;20254;-66
2022/11/02 04:40:14;;;;;;;2.70;2.23;;;9.70;99.90;;;;;;4999047;28;20476;-66
2022/11/02 04:42:40;;;;;;;7.50;3.00;;;9.70;99.90;;;;;;4999112;28;20462;-65
2022/11/02 04:45:06;;;;;;;3.13;1.97;;;9.70;99.90;;;;;;4997176;28;20214;-65
2022/11/02 04:47:31;;;;;;;4.83;2.60;;;9.70;99.90;;;;;;5005778;28;20250;-65
2022/11/02 04:49:57;;;;;;;2.93;2.30;;;9.70;99.90;;;;;;4995854;28;20449;-66
2022/11/02 04:52:22;;;;;;;2.60;2.40;;;9.80;99.90;;;;;;5000552;28;20318;-66
2022/11/02 04:54:48;;;;;;;4.77;3.07;;;9.70;99.90;;;;;;4998691;28;20294;-66
2022/11/02 04:57:13;;;;;;;2.80;2.40;;;9.70;99.90;;;;;;4999967;28;20175;-66
2022/11/02 04:59:38;;;;;;;2.73;2.40;;;9.70;99.90;;;;;;5004831;28;20234;-66
2022/11/02 05:02:04;;;;;;;11.53;2.87;;;9.60;99.90;;;;;;4995751;28;20553;-66
2022/11/02 05:04:29;;;;;;;4.80;2.33;;;9.60;99.90;;;;;;5002140;28;20179;-66
2022/11/02 05:06:55;;;;;;;5.23;2.30;;;9.50;99.90;;;;;;5001266;28;20188;-66
2022/11/02 05:09:20;;;;;;;6.23;2.40;;;9.50;99.90;;;;;;5000296;28;20648;-66
2022/11/02 05:11:46;;;;;;;3.70;2.37;;;9.50;99.90;;;;;;5002059;28;20294;-66
2022/11/02 05:14:12;;;;;;;5.43;2.47;;;9.50;99.90;;;;;;4999726;28;20183;-66
2022/11/02 05:16:37;;;;;;;5.60;2.37;;;9.60;99.90;;;;;;5001978;28;20222;-65
2022/11/02 05:19:02;;;;;;;7.73;2.43;;;9.70;99.90;;;;;;5003356;28;20290;-66
2022/11/02 05:21:28;;;;;;;6.60;2.73;;;9.70;99.90;;;;;;4997579;28;20677;-66
2022/11/02 05:23:53;;;;;;;2.17;1.97;;;9.70;99.90;;;;;;5002558;28;20265;-65
2022/11/02 05:26:19;;;;;;;2.97;2.10;;;9.70;99.90;;;;;;5001692;28;20262;-66
2022/11/02 05:28:44;;;;;;;7.40;2.80;;;9.70;99.90;;;;;;5000562;28;20194;-65
2022/11/02 05:31:10;;;;;;;4.77;2.97;;;9.70;99.90;;;;;;4999464;28;20202;-66
2022/11/02 05:33:35;;;;;;;2.80;2.60;;;9.70;99.90;;;;;;4996103;28;20580;-65
2022/11/02 05:36:01;;;;;;;3.63;2.20;;;9.70;99.90;;;;;;4994700;28;20205;-66
2022/11/02 05:38:27;;;;;;;4.07;2.20;;;9.80;99.90;;;;;;5000684;28;20190;-66
2022/11/02 05:40:55;;;;;;;5.93;2.20;;;9.70;99.90;;;;;;5001052;28;20183;-66
2022/11/02 05:43:21;;;;;;;9.07;2.70;;;9.80;99.90;;;;;;4997939;28;20551;-65
2022/11/02 05:45:54;;;;;;;4.03;2.43;;;9.80;99.90;;;;;;5004643;28;20458;-66
2022/11/02 05:48:20;;;;;;;2.90;2.10;;;9.90;99.90;;;;;;5001494;28;20452;-66
2022/11/02 05:50:46;;;;;;;5.17;2.80;;;9.80;99.90;;;;;;4998777;28;20425;-65
2022/11/02 05:53:12;;;;;;;4.87;2.50;;;9.80;99.90;;;;;;5003195;28;20302;-65
2022/11/02 05:55:37;;;;;;;3.23;2.93;;;9.80;99.90;;;;;;4998390;28;20525;-66
2022/11/02 05:58:03;;;;;;;6.10;2.90;;;9.80;99.90;;;;;;5005660;28;20258;-66
2022/11/02 06:00:28;;;;;;;4.23;2.60;;;9.80;99.90;;;;;;4999094;28;20207;-66
2022/11/02 06:02:57;;;;;;;5.23;2.47;;;9.80;99.90;;;;;;4998990;28;20850;-66
2022/11/02 06:05:24;;;;;;;3.70;2.57;;;9.70;99.90;;;;;;4996923;28;20176;-66
2022/11/02 06:07:49;;;;;;;14.43;3.93;;;9.70;99.90;;;;;;5004232;28;20913;-66
2022/11/02 06:10:15;;;;;;;9.07;3.30;;;9.70;99.90;;;;;;5001258;28;20450;-66
2022/11/02 06:12:41;;;;;;;4.80;2.23;;;9.60;99.90;;;;;;4999731;28;20223;-65
2022/11/02 06:15:07;;;;;;;7.50;2.40;;;9.70;99.90;;;;;;5001876;28;20187;-67
2022/11/02 06:17:39;;;;;;;3.97;2.67;;;9.70;99.90;;;;;;5004154;28;20827;-66
2022/11/02 06:20:06;;;;;;;7.80;2.53;;;9.70;99.90;;;;;;5002347;28;20967;-65
2022/11/02 06:22:41;;;;;;;6.43;3.27;;;9.70;99.90;;;;;;4998619;28;20458;-65
2022/11/02 06:25:07;;;;;;;5.17;2.80;;;9.80;99.90;;;;;;4999420;28;20433;-65
2022/11/02 06:27:33;;;;;;;4.57;2.50;;;9.80;99.90;;;;;;5003522;28;20517;-65
2022/11/02 06:29:59;;;;;;;4.07;2.50;;;9.80;99.90;;;;;;5006476;28;20525;-65
2022/11/02 06:32:24;;;;;;;6.03;3.10;;;9.80;99.90;;;;;;5000132;28;20203;-66
2022/11/02 06:34:50;;;;;;;2.97;2.10;;;9.90;99.90;;;;;;4997300;28;20266;-66
2022/11/02 06:37:15;;;;;;;5.90;2.63;;;10.00;99.90;;;;;;5006764;28;20178;-66
2022/11/02 06:39:41;;;;;;;5.50;2.90;;;10.00;99.90;;;;;;5002540;28;20250;-66
2022/11/02 06:42:06;;;;;;;15.63;3.17;;;10.10;99.90;;;;;;5005991;28;20207;-66
2022/11/02 06:44:32;;;;;;;7.57;3.33;;;10.20;99.90;;;;;;4999620;28;20542;-65
2022/11/02 06:46:57;;;;;;;5.13;2.83;;;10.40;99.90;;;;;;4999855;28;20685;-66
2022/11/02 06:49:23;;;;;;;4.90;2.50;;;10.50;99.90;;;;;;4999600;28;20249;-66
2022/11/02 06:51:52;;;;;;;6.47;2.97;;;10.60;99.90;;;;;;4996404;28;20293;-66
2022/11/02 06:54:17;;;;;;;7.93;2.93;;;10.90;99.90;;;;;;5003261;28;20171;-66
2022/11/02 06:56:43;;;;;;;11.67;4.10;;;11.10;99.90;;;;;;4999110;28;20442;-65
2022/11/02 06:59:09;;;;;;;5.87;2.80;;;11.30;99.90;;;;;;4998239;28;20665;-66
2022/11/02 07:01:34;;;;;;;7.43;2.03;;;11.50;99.90;;;;;;5004160;28;20231;-66
2022/11/02 07:04:01;;;;;;;12.13;3.30;;;11.60;99.90;;;;;;5000108;28;20178;-66
2022/11/02 07:06:27;;;;;;;6.67;2.70;;;11.70;99.90;;;;;;5002164;28;20192;-66
2022/11/02 07:08:53;;;;;;;3.80;2.27;;;11.80;99.90;;;;;;4994850;28;20437;-65
2022/11/02 07:11:19;;;;;;;3.70;2.30;;;11.80;99.90;;;;;;4995770;28;20188;-65
2022/11/02 07:13:44;;;;;;;12.87;3.00;;;11.90;99.90;;;;;;4987653;28;20435;-66
2022/11/02 07:16:10;;;;;;;5.33;2.40;;;12.00;99.90;;;;;;4990393;28;20175;-66
2022/11/02 07:18:35;;;;;;;5.80;1.90;;;12.00;99.90;;;;;;4993658;28;20256;-66
2022/11/02 07:21:01;;;;;;;5.60;2.50;;;12.10;99.90;;;;;;5000597;28;20551;-66
2022/11/02 07:23:27;;;;;;;6.63;2.30;;;12.10;99.90;;;;;;4985313;28;20211;-65
2022/11/02 07:25:53;;;;;;;5.03;2.10;;;12.10;99.90;;;;;;4960756;28;21038;-65
2022/11/02 07:28:18;;;;;;;5.43;2.47;;;12.00;99.90;;;;;;4981850;28;20430;-66
2022/11/02 07:30:44;;;;;;;9.43;1.90;;;12.20;99.90;;;;;;4998078;28;20258;-66
2022/11/02 07:33:10;;;;;;;8.60;4.37;;;12.60;99.90;;;;;;4996157;28;20195;-66
2022/11/02 07:35:36;;;;;;;6.60;2.20;;;12.70;99.90;;;;;;4996130;28;20187;-67
2022/11/02 07:38:04;;;;;;;4.27;2.40;;;12.80;99.90;;;;;;4995696;28;20188;-71
2022/11/02 07:40:31;;;;;;;4.70;2.07;;;13.10;99.90;;;;;;5000874;28;20665;-66
2022/11/02 07:43:00;;;;;;;5.00;2.43;;;13.30;99.90;;;;;;4989950;28;20520;-67
2022/11/02 07:45:28;;;;;;;5.20;3.30;;;13.50;99.90;;;;;;4990667;28;20419;-66
2022/11/02 07:47:56;;;;;;;6.33;3.30;;;13.70;99.90;;;;;;4993220;28;20772;-68
2022/11/02 07:50:23;;;;;;;8.03;3.30;;;13.80;99.90;;;;;;4989498;28;20438;-69
2022/11/02 07:52:51;;;;;;;7.10;2.57;;;13.80;99.90;;;;;;4998459;28;20463;-69
2022/11/02 07:55:28;;;;;;;7.50;2.30;;;14.00;99.90;;;;;;4998246;28;20437;-68
2022/11/02 07:57:55;;;;;;;4.73;2.13;;;14.10;99.90;;;;;;4992563;28;20475;-68
2022/11/02 08:00:21;;;;;;;5.73;2.30;;;14.00;99.90;;;;;;4996909;28;20886;-69
2022/11/02 08:02:46;;;;;;;5.27;2.50;;;14.10;99.90;;;;;;5003442;28;20541;-68
2022/11/02 08:05:12;;;;;;;5.63;2.90;;;14.00;99.90;;;;;;5007433;28;20176;-67
2022/11/02 08:07:37;;;;;;;2.97;2.40;;;13.90;99.90;;;;;;5001478;28;20182;-67
2022/11/02 08:10:03;;;;;;;3.83;2.70;;;13.90;99.90;;;;;;5003797;28;20188;-67
2022/11/02 08:12:29;;;;;;;5.80;2.67;;;14.20;99.90;;;;;;4995795;28;20260;-67
2022/11/02 08:14:55;;;;;;;5.83;3.37;;;14.20;99.90;;;;;;4992457;28;20211;-68
2022/11/02 08:17:21;;;;;;;7.03;2.73;;;14.50;99.90;;;;;;4993061;28;20194;-67
2022/11/02 08:19:47;;;;;;;5.00;2.20;;;14.80;99.90;;;;;;4992783;28;20463;-68
2022/11/02 08:22:12;;;;;;;4.27;2.00;;;15.00;99.90;;;;;;5001153;28;20458;-67
2022/11/02 08:24:38;;;;;;;4.17;2.50;;;15.30;99.90;;;;;;5001864;28;20481;-67
2022/11/02 08:27:03;;;;;;;4.40;2.70;;;15.80;99.90;;;;;;4993865;28;20267;-67
2022/11/02 08:29:29;;;;;;;6.57;2.50;;;16.20;99.90;;;;;;4995140;28;20195;-66
2022/11/02 08:31:54;;;;;;;5.70;2.40;;;16.20;99.90;;;;;;4993736;28;20195;-66
2022/11/02 08:34:20;;;;;;;3.63;2.67;;;16.30;99.90;;;;;;5001747;28;20253;-67
2022/11/02 08:36:45;;;;;;;5.13;2.30;;;16.10;99.90;;;;;;5001285;28;20187;-68
2022/11/02 08:39:11;;;;;;;5.93;2.77;;;16.30;99.90;;;;;;4991341;28;20211;-67
2022/11/02 08:41:36;;;;;;;5.87;2.93;;;16.40;99.90;;;;;;4999710;28;20219;-68
2022/11/02 08:44:02;;;;;;;6.47;2.87;;;16.40;99.90;;;;;;5005215;28;20183;-67
2022/11/02 08:46:28;;;;;;;5.00;2.50;;;16.10;99.90;;;;;;4998874;28;20184;-68
2022/11/02 08:48:54;;;;;;;5.47;2.47;;;16.10;99.90;;;;;;5000407;28;20187;-68
2022/11/02 08:51:19;;;;;;;3.63;2.43;;;16.20;99.90;;;;;;5002924;28;20433;-67
2022/11/02 08:53:45;;;;;;;4.40;2.80;;;16.50;99.90;;;;;;4999052;28;20194;-67
2022/11/02 08:56:11;;;;;;;11.57;4.20;;;16.70;99.90;;;;;;5001479;28;20557;-67
2022/11/02 08:58:36;;;;;;;6.47;4.00;;;16.60;99.90;;;;;;5005845;28;20191;-67
2022/11/02 09:01:02;;;;;;;4.07;2.10;;;16.50;99.90;;;;;;4998976;28;20194;-67
2022/11/02 09:03:27;;;;;;;4.60;2.40;;;16.60;99.90;;;;;;4997971;28;20245;-67
2022/11/02 09:06:01;;;;;;;5.07;1.90;;;17.10;99.90;;;;;;4998066;28;20213;-67
2022/11/02 09:08:27;;;;;;;3.93;2.30;;;16.90;99.90;;;;;;4999361;28;20179;-68
2022/11/02 09:10:56;;;;;;;5.03;1.83;;;16.70;99.90;;;;;;5003420;28;20524;-67
2022/11/02 09:13:24;;;;;;;2.87;2.00;;;17.10;99.90;;;;;;4994761;28;20526;-67
2022/11/02 09:15:52;;;;;;;8.77;3.13;;;17.00;99.90;;;;;;4999597;28;20800;-67
2022/11/02 09:18:17;;;;;;;4.37;1.90;;;17.10;99.90;;;;;;4999148;28;21017;-67
2022/11/02 09:20:44;;;;;;;3.37;2.10;;;16.70;99.90;;;;;;4998212;28;20519;-67
2022/11/02 09:23:09;;;;;;;6.97;1.90;;;16.40;99.90;;;;;;5002531;28;20203;-67
2022/11/02 09:25:35;;;;;;;6.53;2.00;;;16.20;99.90;;;;;;4996282;28;21047;-67
2022/11/02 09:28:01;;;;;;;3.47;1.83;;;16.00;99.90;;;;;;4999956;28;20217;-66
2022/11/02 09:30:27;;;;;;;4.87;2.33;;;15.90;99.90;;;;;;4993012;28;20172;-66
2022/11/02 09:33:04;;;;;;;8.43;3.00;;;15.90;99.90;;;;;;4987247;28;20196;-66
2022/11/02 09:35:32;;;;;;;2.80;2.13;;;15.90;99.90;;;;;;4990766;28;20458;-66
2022/11/02 09:37:58;;;;;;;5.33;1.70;;;16.00;99.90;;;;;;4983142;28;20530;-66
2022/11/02 09:40:30;;;;;;;10.40;2.10;;;16.20;99.90;;;;;;4987752;28;20595;-66
2022/11/02 09:43:13;;;;;;;7.03;3.13;;;15.90;99.90;;;;;;4982863;28;20203;-66
2022/11/02 09:45:56;;;;;;;6.43;2.10;;;15.80;99.90;;;;;;4992387;28;20446;-67
2022/11/02 09:48:28;;;;;;;4.93;2.63;;;15.70;99.90;;;;;;4993837;28;20757;-66
2022/11/02 09:51:22;;;;;;;4.40;2.30;;;15.70;99.90;;;;;;5000473;28;20422;-67
2022/11/02 09:54:00;;;;;;;3.30;2.10;;;16.00;99.90;;;;;;4993496;28;20501;-67
2022/11/02 09:56:28;;;;;;;7.20;1.90;;;16.00;99.90;;;;;;4997765;28;20483;-67
2022/11/02 09:59:01;;;;;;;7.53;1.90;;;16.00;99.90;;;;;;4993216;28;20937;-67
2022/11/02 10:01:58;;;;;;;2.87;2.07;;;15.70;99.90;;;;;;4990814;28;20458;-67
2022/11/02 10:04:41;;;;;;;6.60;2.40;;;15.80;99.90;;;;;;4987461;28;20782;-67
2022/11/02 10:07:31;;;;;;;4.07;2.00;;;15.80;99.90;;;;;;4982850;28;20435;-66
2022/11/02 10:10:04;;;;;;;8.90;3.73;;;15.80;99.90;;;;;;4991896;28;20484;-66
2022/11/02 10:12:54;;;;;;;6.53;3.00;;;16.00;99.90;;;;;;4990720;28;20454;-67
2022/11/02 10:15:34;;;;;;;8.10;4.23;;;16.10;99.90;;;;;;4992988;28;20429;-66
2022/11/02 10:18:01;;;;;;;3.80;2.27;;;16.40;99.90;;;;;;4992495;28;20958;-67
2022/11/02 10:20:40;;;;;;;6.67;2.50;;;16.80;99.90;;;;;;4991548;28;20554;-67
2022/11/02 10:23:17;;;;;;;4.50;2.17;;;16.80;99.90;;;;;;4992388;28;20450;-67
2022/11/02 10:25:44;;;;;;;4.40;1.77;;;17.10;99.90;;;;;;4990678;28;20450;-66
2022/11/02 10:28:15;;;;;;;6.83;2.57;;;16.80;99.90;;;;;;4998050;28;20430;-67
2022/11/02 10:30:43;;;;;;;4.60;2.00;;;16.60;99.90;;;;;;4994103;28;20435;-67
2022/11/02 10:33:24;;;;;;;5.23;1.70;;;16.40;99.90;;;;;;4993114;28;20474;-66
2022/11/02 10:36:16;;;;;;;3.10;1.50;;;16.50;99.90;;;;;;4992855;28;20489;-66
2022/11/02 10:39:20;;;;;;;2.90;1.80;;;16.60;99.90;;;;;;4993765;28;20440;-66
2022/11/02 10:42:30;;;;;;;2.60;1.67;;;16.60;99.90;;;;;;4993859;28;20469;-67
2022/11/02 10:45:33;;;;;;;6.13;1.93;;;16.90;99.90;;;;;;4997683;28;20441;-66
2022/11/02 10:48:23;;;;;;;4.73;2.00;;;16.80;99.90;;;;;;4992000;28;20985;-66
2022/11/02 10:51:11;;;;;;;6.63;2.13;;;16.60;99.90;;;;;;4993857;28;20505;-67
2022/11/02 10:53:45;;;;;;;4.77;2.23;;;16.90;99.90;;;;;;4998081;28;20437;-67
2022/11/02 10:56:21;;;;;;;13.53;2.13;;;16.70;99.90;;;;;;5009338;28;20422;-67
2022/11/02 10:58:58;;;;;;;7.03;2.27;;;16.40;99.90;;;;;;4991298;28;20485;-67
2022/11/02 11:01:25;;;;;;;6.20;2.77;;;16.30;99.90;;;;;;4991388;28;20439;-67
2022/11/02 11:03:51;;;;;;;5.17;2.00;;;16.20;99.90;;;;;;4990593;28;20427;-67
2022/11/02 11:06:17;;;;;;;5.90;2.40;;;16.40;99.90;;;;;;4991023;28;20419;-66
2022/11/02 11:08:48;;;;;;;2.87;1.63;;;16.20;99.90;;;;;;4991239;28;20580;-67
2022/11/02 11:11:16;;;;;;;5.17;2.43;;;16.30;99.90;;;;;;4990172;28;20206;-67
2022/11/02 11:13:57;;;;;;;6.37;1.90;;;16.30;99.90;;;;;;4991054;28;20422;-67
2022/11/02 11:16:34;;;;;;;6.00;2.67;;;16.40;99.90;;;;;;4986411;28;20526;-64
2022/11/02 11:19:00;;;;;;;8.77;2.30;;;16.50;99.90;;;;;;4972795;28;20515;-65
2022/11/02 11:21:36;;;;;;;4.40;1.83;;;16.70;99.90;;;;;;4972534;28;20447;-65
2022/11/02 11:24:29;;;;;;;7.37;2.20;;;16.80;99.90;;;;;;4986950;28;20462;-65
2022/11/02 11:27:10;;;;;;;5.63;2.83;;;17.10;99.90;;;;;;4990530;28;20492;-62
2022/11/02 11:29:39;;;;;;;3.80;3.27;;;17.40;99.90;;;;;;4991844;28;20783;-66
2022/11/02 11:32:25;;;;;;;6.53;2.50;;;18.00;99.90;;;;;;4992722;28;20459;-66
2022/11/02 11:35:01;;;;;;;4.23;2.10;;;18.40;99.90;;;;;;4991323;28;20990;-66
2022/11/02 11:37:27;;;;;;;7.53;2.53;;;19.10;99.90;;;;;;4988226;28;20437;-66
2022/11/02 11:39:58;;;;;;;9.20;1.97;;;19.70;99.90;;;;;;4990357;28;21166;-68
2022/11/02 11:42:28;;;;;;;5.60;1.70;;;21.30;99.90;;;;;;4994837;28;20246;-68
2022/11/02 11:44:58;;;;;;;2.70;2.27;;;23.90;99.90;;;;;;4992489;28;20431;-68
2022/11/02 11:47:31;;;;;;;2.60;2.00;;;26.60;83.60;;;;;;4988233;28;20535;-68
2022/11/02 11:50:01;;;;;;;3.40;2.37;;;28.60;71.70;;;;;;4987196;28;20435;-67
2022/11/02 11:52:29;;;;;;;4.60;2.10;;;29.10;60.10;;;;;;4992894;28;20564;-69
2022/11/02 11:54:57;;;;;;;2.70;1.80;;;29.00;58.40;;;;;;4987473;28;20434;-70
2022/11/02 11:57:32;;;;;;;4.03;2.33;;;28.70;56.20;;;;;;4990884;28;20457;-70
2022/11/02 12:00:02;;;;;;;2.50;2.20;;;28.20;55.70;;;;;;5010998;28;20544;-70
2022/11/02 12:02:37;;;;;;;6.77;2.27;;;28.20;56.20;;;;;;4986604;28;20971;-68
2022/11/02 12:05:16;;;;;;;3.47;1.67;;;28.30;53.70;;;;;;4993552;28;20518;-70
2022/11/02 12:08:17;;;;;;;2.70;1.83;;;27.50;53.20;;;;;;4991519;28;20512;-68
2022/11/02 12:10:48;;;;;;;4.33;2.00;;;27.80;55.20;;;;;;4985160;28;20454;-68
2022/11/02 12:13:39;;;;;;;4.27;2.30;;;27.10;55.10;;;;;;4990730;28;20458;-68
2022/11/02 12:16:16;;;;;;;4.13;1.70;;;24.50;57.10;;;;;;4992908;28;20812;-67
2022/11/02 12:19:24;;;;;;;4.53;1.73;;;22.30;59.80;;;;;;4995729;28;20513;-67
2022/11/02 12:22:34;;;;;;;1.83;1.50;;;20.70;68.00;;;;;;5001654;28;20465;-67
2022/11/02 12:25:24;;;;;;;6.00;1.90;;;19.20;84.40;;;;;;4993215;28;20466;-67
2022/11/02 12:27:50;;;;;;;4.03;1.93;;;19.70;88.70;;;;;;5000168;28;20492;-67
2022/11/02 12:30:23;;;;;;;4.70;1.90;;;19.90;86.50;;;;;;4992751;28;20448;-68
2022/11/02 12:33:36;;;;;;;5.80;2.90;;;21.00;83.80;;;;;;4992275;28;20813;-67
2022/11/02 12:36:21;;;;;;;6.10;2.47;;;22.80;80.00;;;;;;4995723;28;20437;-68
2022/11/02 12:39:06;;;;;;;4.67;1.93;;;25.00;67.50;;;;;;5000319;28;20434;-68
2022/11/02 12:41:44;;;;;;;4.30;3.53;;;26.40;67.20;;;;;;4993394;28;20504;-67
2022/11/02 12:44:34;;;;;;;4.40;2.73;;;27.90;61.40;;;;;;4997772;28;20442;-68
2022/11/02 12:47:32;;;;;;;5.67;2.80;;;27.80;59.00;;;;;;4997784;28;20434;-68
2022/11/02 12:50:10;;;;;;;3.50;1.90;;;29.10;58.30;;;;;;4999680;28;20438;-69
2022/11/02 12:52:51;;;;;;;5.90;1.80;;;28.40;57.30;;;;;;4994509;28;20473;-68
2022/11/02 12:55:21;;;;;;;5.67;2.27;;;29.40;56.40;;;;;;4999648;28;20537;-67
2022/11/02 12:57:47;;;;;;;2.80;1.70;;;30.70;57.60;;;;;;4992207;28;20445;-69
2022/11/02 13:00:20;;;;;;;4.60;1.70;;;31.60;54.60;;;;;;5003406;28;20466;-68
2022/11/02 13:02:57;;;;;;;4.87;2.10;;;32.70;52.40;;;;;;4992989;28;20956;-68
2022/11/02 13:05:31;;;;;;;4.20;2.20;;;32.70;52.00;;;;;;5000086;28;20519;-68
2022/11/02 13:08:15;;;;;;;4.83;2.30;;;32.70;48.40;;;;;;5002683;28;20437;-68
2022/11/02 13:10:51;;;;;;;2.63;1.80;;;31.90;49.70;;;;;;4988335;28;20430;-67
2022/11/02 13:13:29;;;;;;;4.83;2.40;;;31.80;48.90;;;;;;4989195;28;20452;-67
2022/11/02 13:15:55;;;;;;;5.60;1.93;;;31.20;48.70;;;;;;4984003;28;20426;-67
2022/11/02 13:18:37;;;;;;;2.90;2.10;;;31.10;48.60;;;;;;4995341;28;20435;-67
2022/11/02 13:21:04;;;;;;;6.47;2.30;;;29.50;48.60;;;;;;4996304;28;20442;-67
2022/11/02 13:23:40;;;;;;;5.83;1.97;;;30.30;49.20;;;;;;4995336;28;20437;-67
2022/11/02 13:26:33;;;;;;;3.87;2.13;;;31.30;48.20;;;;;;4996098;28;20497;-68
2022/11/02 13:29:08;;;;;;;3.10;2.17;;;33.50;47.20;;;;;;4982197;28;20534;-68